CMA CGM Castilla — V7LZ7 — position and weather

sailwx.info

Track history (hours):
 
Tides and Currents Weather Stations Pressure Air Temp Water Temp Dewpoint Dewpoint Depression Visibility Wind Speed Wind Dir Waves Ship Positions

CMA CGM Castilla

Last reported at 2016-Jun-08 14:33 UTC. Time now 2016-Sep-27 10:27 UTC.
Position N 31°16' E 032°19'.
Warning: this ship's position is months out of date.

Length 194 m; beam 28.2 m; draft 11.5 m.

Type: Ship. MMSI: 341682000.

Date/timePositionNaut miles runAvg speedWind from/ knotsBaromVisibWave heightAir tempDewpointWater temp
2016-Jun-08 14:33N 31°16' E 032°19'0 0.0
2016-Jun-08 13:12N 31°16' E 032°20'1 1.5
2016-Jun-08 12:33N 31°17' E 032°20'5 5.3
2016-Jun-08 11:31N 31°22' E 032°21'3 3.4
2016-Jun-08 10:33N 31°25' E 032°22'7 6.8
2016-Jun-08 09:33N 31°25' E 032°30'1 0.7
2016-Jun-08 08:33N 31°25' E 032°31'0 0.0
2016-Jun-08 07:33N 31°25' E 032°31'0 0.0
2016-Jun-08 06:31N 31°25' E 032°31'0 0.0
2016-Jun-08 05:31N 31°25' E 032°31'0 0.0
2016-Jun-08 04:28N 31°25' E 032°31'0 0.0
2016-Jun-08 03:31N 31°25' E 032°31'0 0.0
2016-Jun-08 02:31N 31°25' E 032°31'0 0.0
2016-Jun-07 23:31N 31°25' E 032°31'0 0.0
2016-Jun-07 22:28N 31°25' E 032°31'0 0.0
2016-Jun-07 21:25N 31°25' E 032°31'0 0.0
2016-Jun-07 20:31N 31°25' E 032°31'0 0.0
2016-Jun-07 19:31N 31°25' E 032°31'0 0.0
2016-Jun-07 18:31N 31°25' E 032°31'0 0.0
2016-Jun-07 17:28N 31°25' E 032°31'0 0.0
2016-Jun-07 16:28N 31°25' E 032°31'0 0.0
2016-Jun-07 15:31N 31°25' E 032°31'0 0.0
2016-Jun-07 14:31N 31°25' E 032°31'0 0.0
2016-Jun-07 08:10N 31°25' E 032°31'0 0.0
2016-Jun-07 07:25N 31°25' E 032°31'0 0.1
2016-Jun-07 06:19N 31°25' E 032°31'0 0.0
2016-Jun-07 00:13N 31°25' E 032°31'0 0.1
2016-Jun-06 23:28N 31°25' E 032°31'0 0.0
2016-Jun-06 22:28N 31°25' E 032°31'0 0.0
2016-Jun-06 13:31N 31°25' E 032°31'0 0.0
2016-Jun-05 20:31N 31°25' E 032°31'0 0.0
2016-Jun-05 19:28N 31°25' E 032°31'0 0.0
2016-Jun-05 15:28N 31°25' E 032°31'0 0.0
2016-Jun-05 14:25N 31°25' E 032°31'0 0.0
2016-Jun-05 13:31N 31°25' E 032°31'0 0.0
2016-Jun-05 12:28N 31°25' E 032°31'0 0.0
2016-Jun-05 11:25N 31°25' E 032°31'0 0.0
2016-Jun-05 10:31N 31°25' E 032°31'0 0.0
2016-Jun-05 09:31N 31°25' E 032°31'0 0.0
2016-Jun-05 07:16N 31°25' E 032°31'0 0.0
2016-Jun-05 06:28N 31°25' E 032°31'0 0.0
2016-Jun-05 05:22N 31°25' E 032°31'0 0.0
2016-Jun-05 03:31N 31°25' E 032°31'0 0.0
2016-Jun-05 02:07N 31°25' E 032°31'0 0.0
2016-Jun-05 01:22N 31°25' E 032°31'0 0.0
2016-Jun-05 00:22N 31°25' E 032°31'0 0.0
2016-Jun-04 23:31N 31°25' E 032°31'0 0.1
2016-Jun-04 21:28N 31°25' E 032°31'0 0.0
2016-Jun-04 20:31N 31°25' E 032°31'0 0.1
2016-Jun-04 19:16N 31°25' E 032°31'0 0.1
2016-Jun-04 18:31N 31°25' E 032°31'0 0.0
2016-Jun-04 17:31N 31°25' E 032°31'0 0.0
2016-Jun-04 10:04N 31°25' E 032°31'0 0.0
2016-Jun-03 20:04N 31°25' E 032°31'0 0.0
2016-Jun-03 08:27N 31°25' E 032°31'0 0.0
2016-Jun-03 07:33N 31°25' E 032°31'0 0.0
2016-Jun-03 06:33N 31°25' E 032°31'0 0.0
2016-Jun-03 02:24N 31°25' E 032°31'0 0.0
2016-Jun-03 01:33N 31°25' E 032°31'0 0.0
2016-Jun-02 23:27N 31°25' E 032°31'0 0.0
2016-Jun-02 22:33N 31°25' E 032°31'0 0.0
2016-Jun-02 21:03N 31°25' E 032°31'0 0.0
2016-Jun-02 20:30N 31°25' E 032°31'0 0.0
2016-Jun-02 19:30N 31°25' E 032°31'0 0.0
2016-Jun-02 18:27N 31°25' E 032°31'0 0.0
2016-Jun-02 05:24N 31°25' E 032°31'0 0.0
2016-Jun-02 04:33N 31°25' E 032°31'0 0.0
2016-Jun-02 03:33N 31°25' E 032°31'0 0.0
2016-Jun-02 02:33N 31°25' E 032°31'0 0.0
2016-Jun-02 01:33N 31°25' E 032°31'0 0.0
2016-Jun-02 00:33N 31°25' E 032°31'0 0.0
2016-Jun-01 23:33N 31°25' E 032°31'0 0.0
2016-Jun-01 22:33N 31°25' E 032°31'0 0.0
2016-Jun-01 21:33N 31°25' E 032°31'0 0.0
2016-Jun-01 18:03N 31°25' E 032°31'0 0.0
2016-Jun-01 17:30N 31°25' E 032°31'0 0.0
2016-Jun-01 09:15N 31°25' E 032°31'0 0.1
2016-Jun-01 08:33N 31°25' E 032°31'0 0.0
2016-Jun-01 07:33N 31°25' E 032°31'0 0.0
2016-Jun-01 06:33N 31°25' E 032°31'0 0.0
2016-Jun-01 05:33N 31°25' E 032°31'0 0.0
2016-Jun-01 04:27N 31°25' E 032°31'0 0.0
2016-Jun-01 03:33N 31°25' E 032°31'0 0.0
2016-Jun-01 02:30N 31°25' E 032°31'0 0.0
2016-Jun-01 01:33N 31°25' E 032°31'0 0.0
2016-Jun-01 00:33N 31°25' E 032°31'0 0.0
2016-May-31 23:33N 31°25' E 032°31'0 0.0
2016-May-31 21:33N 31°25' E 032°31'0 0.0
2016-May-31 20:33N 31°25' E 032°31'0 0.0
2016-May-31 15:12N 31°25' E 032°31'0 0.0
2016-May-31 14:27N 31°25' E 032°31'0 0.0
2016-May-31 12:33N 31°25' E 032°31'0 0.0
2016-May-31 11:33N 31°25' E 032°31'0 0.0
2016-May-31 10:33N 31°25' E 032°31'0 0.1
2016-May-31 09:21N 31°25' E 032°31'0 0.0
2016-May-31 08:33N 31°25' E 032°31'0 0.0
2016-May-31 07:33N 31°25' E 032°31'0 0.0
2016-May-31 06:30N 31°25' E 032°31'0 0.0
2016-May-31 04:33N 31°25' E 032°31'0 0.0
2016-May-30 23:06N 31°25' E 032°31'  
Track history (hours):
 
Tides and Currents Weather Stations Pressure Air Temp Water Temp Dewpoint Dewpoint Depression Visibility Wind Speed Wind Dir Waves Ship Positions

CMA CGM Castilla

Last reported at 2016-Jun-08 14:33 UTC. Time now 2016-Sep-27 10:27 UTC.
Position N 31°16' E 032°19'.
Warning: this ship's position is months out of date.

Length 194 m; beam 28.2 m; draft 11.5 m.

Type: Ship. MMSI: 341682000.

Date/timePositionNaut miles runAvg speedWind from/ knotsBaromVisibWave heightAir tempDewpointWater temp
2016-Jun-08 14:33N 31°16' E 032°19'0 0.0
2016-Jun-08 13:12N 31°16' E 032°20'1 1.5
2016-Jun-08 12:33N 31°17' E 032°20'5 5.3
2016-Jun-08 11:31N 31°22' E 032°21'3 3.4
2016-Jun-08 10:33N 31°25' E 032°22'7 6.8
2016-Jun-08 09:33N 31°25' E 032°30'1 0.7
2016-Jun-08 08:33N 31°25' E 032°31'0 0.0
2016-Jun-08 07:33N 31°25' E 032°31'0 0.0
2016-Jun-08 06:31N 31°25' E 032°31'0 0.0
2016-Jun-08 05:31N 31°25' E 032°31'0 0.0
2016-Jun-08 04:28N 31°25' E 032°31'0 0.0
2016-Jun-08 03:31N 31°25' E 032°31'0 0.0
2016-Jun-08 02:31N 31°25' E 032°31'0 0.0
2016-Jun-07 23:31N 31°25' E 032°31'0 0.0
2016-Jun-07 22:28N 31°25' E 032°31'0 0.0
2016-Jun-07 21:25N 31°25' E 032°31'0 0.0
2016-Jun-07 20:31N 31°25' E 032°31'0 0.0
2016-Jun-07 19:31N 31°25' E 032°31'0 0.0
2016-Jun-07 18:31N 31°25' E 032°31'0 0.0
2016-Jun-07 17:28N 31°25' E 032°31'0 0.0
2016-Jun-07 16:28N 31°25' E 032°31'0 0.0
2016-Jun-07 15:31N 31°25' E 032°31'0 0.0
2016-Jun-07 14:31N 31°25' E 032°31'0 0.0
2016-Jun-07 08:10N 31°25' E 032°31'0 0.0
2016-Jun-07 07:25N 31°25' E 032°31'0 0.1
2016-Jun-07 06:19N 31°25' E 032°31'0 0.0
2016-Jun-07 00:13N 31°25' E 032°31'0 0.1
2016-Jun-06 23:28N 31°25' E 032°31'0 0.0
2016-Jun-06 22:28N 31°25' E 032°31'0 0.0
2016-Jun-06 13:31N 31°25' E 032°31'0 0.0
2016-Jun-05 20:31N 31°25' E 032°31'0 0.0
2016-Jun-05 19:28N 31°25' E 032°31'0 0.0
2016-Jun-05 15:28N 31°25' E 032°31'0 0.0
2016-Jun-05 14:25N 31°25' E 032°31'0 0.0
2016-Jun-05 13:31N 31°25' E 032°31'0 0.0
2016-Jun-05 12:28N 31°25' E 032°31'0 0.0
2016-Jun-05 11:25N 31°25' E 032°31'0 0.0
2016-Jun-05 10:31N 31°25' E 032°31'0 0.0
2016-Jun-05 09:31N 31°25' E 032°31'0 0.0
2016-Jun-05 07:16N 31°25' E 032°31'0 0.0
2016-Jun-05 06:28N 31°25' E 032°31'0 0.0
2016-Jun-05 05:22N 31°25' E 032°31'0 0.0
2016-Jun-05 03:31N 31°25' E 032°31'0 0.0
2016-Jun-05 02:07N 31°25' E 032°31'0 0.0
2016-Jun-05 01:22N 31°25' E 032°31'0 0.0
2016-Jun-05 00:22N 31°25' E 032°31'0 0.0
2016-Jun-04 23:31N 31°25' E 032°31'0 0.1
2016-Jun-04 21:28N 31°25' E 032°31'0 0.0
2016-Jun-04 20:31N 31°25' E 032°31'0 0.1
2016-Jun-04 19:16N 31°25' E 032°31'0 0.1
2016-Jun-04 18:31N 31°25' E 032°31'0 0.0
2016-Jun-04 17:31N 31°25' E 032°31'0 0.0
2016-Jun-04 10:04N 31°25' E 032°31'0 0.0
2016-Jun-03 20:04N 31°25' E 032°31'0 0.0
2016-Jun-03 08:27N 31°25' E 032°31'0 0.0
2016-Jun-03 07:33N 31°25' E 032°31'0 0.0
2016-Jun-03 06:33N 31°25' E 032°31'0 0.0
2016-Jun-03 02:24N 31°25' E 032°31'0 0.0
2016-Jun-03 01:33N 31°25' E 032°31'0 0.0
2016-Jun-02 23:27N 31°25' E 032°31'0 0.0
2016-Jun-02 22:33N 31°25' E 032°31'0 0.0
2016-Jun-02 21:03N 31°25' E 032°31'0 0.0
2016-Jun-02 20:30N 31°25' E 032°31'0 0.0
2016-Jun-02 19:30N 31°25' E 032°31'0 0.0
2016-Jun-02 18:27N 31°25' E 032°31'0 0.0
2016-Jun-02 05:24N 31°25' E 032°31'0 0.0
2016-Jun-02 04:33N 31°25' E 032°31'0 0.0
2016-Jun-02 03:33N 31°25' E 032°31'0 0.0
2016-Jun-02 02:33N 31°25' E 032°31'0 0.0
2016-Jun-02 01:33N 31°25' E 032°31'0 0.0
2016-Jun-02 00:33N 31°25' E 032°31'0 0.0
2016-Jun-01 23:33N 31°25' E 032°31'0 0.0
2016-Jun-01 22:33N 31°25' E 032°31'0 0.0
2016-Jun-01 21:33N 31°25' E 032°31'0 0.0
2016-Jun-01 18:03N 31°25' E 032°31'0 0.0
2016-Jun-01 17:30N 31°25' E 032°31'0 0.0
2016-Jun-01 09:15N 31°25' E 032°31'0 0.1
2016-Jun-01 08:33N 31°25' E 032°31'0 0.0
2016-Jun-01 07:33N 31°25' E 032°31'0 0.0
2016-Jun-01 06:33N 31°25' E 032°31'0 0.0
2016-Jun-01 05:33N 31°25' E 032°31'0 0.0
2016-Jun-01 04:27N 31°25' E 032°31'0 0.0
2016-Jun-01 03:33N 31°25' E 032°31'0 0.0
2016-Jun-01 02:30N 31°25' E 032°31'0 0.0
2016-Jun-01 01:33N 31°25' E 032°31'0 0.0
2016-Jun-01 00:33N 31°25' E 032°31'0 0.0
2016-May-31 23:33N 31°25' E 032°31'0 0.0
2016-May-31 21:33N 31°25' E 032°31'0 0.0
2016-May-31 20:33N 31°25' E 032°31'0 0.0
2016-May-31 15:12N 31°25' E 032°31'0 0.0
2016-May-31 14:27N 31°25' E 032°31'0 0.0
2016-May-31 12:33N 31°25' E 032°31'0 0.0
2016-May-31 11:33N 31°25' E 032°31'0 0.0
2016-May-31 10:33N 31°25' E 032°31'0 0.1
2016-May-31 09:21N 31°25' E 032°31'0 0.0
2016-May-31 08:33N 31°25' E 032°31'0 0.0
2016-May-31 07:33N 31°25' E 032°31'0 0.0
2016-May-31 06:30N 31°25' E 032°31'0 0.0
2016-May-31 04:33N 31°25' E 032°31'0 0.0
2016-May-30 23:06N 31°25' E 032°31'  

Dump ship's entire track history